sensor_id;sensor_type;location;lat;lon;timestamp;temperature;humidity
24664;DHT22;12791;50.992;13.788;2024-02-14T00:00:44;3.60;99.90
24664;DHT22;12791;50.992;13.788;2024-02-14T00:03:11;3.60;99.90
24664;DHT22;12791;50.992;13.788;2024-02-14T00:05:37;3.60;99.90
24664;DHT22;12791;50.992;13.788;2024-02-14T00:08:06;3.30;99.90
24664;DHT22;12791;50.992;13.788;2024-02-14T00:10:33;3.70;99.90
24664;DHT22;12791;50.992;13.788;2024-02-14T00:13:00;3.30;99.90
24664;DHT22;12791;50.992;13.788;2024-02-14T00:15:28;3.60;99.90
24664;DHT22;12791;50.992;13.788;2024-02-14T00:17:55;3.70;99.90
24664;DHT22;12791;50.992;13.788;2024-02-14T00:20:22;3.20;99.90
24664;DHT22;12791;50.992;13.788;2024-02-14T00:22:49;3.60;99.90
24664;DHT22;12791;50.992;13.788;2024-02-14T00:25:16;3.60;99.90
24664;DHT22;12791;50.992;13.788;2024-02-14T00:27:43;3.60;99.90
24664;DHT22;12791;50.992;13.788;2024-02-14T00:30:10;3.60;99.90
24664;DHT22;12791;50.992;13.788;2024-02-14T00:32:38;3.60;99.90
24664;DHT22;12791;50.992;13.788;2024-02-14T00:35:05;3.60;99.90
24664;DHT22;12791;50.992;13.788;2024-02-14T00:37:32;3.60;99.90
24664;DHT22;12791;50.992;13.788;2024-02-14T00:39:59;3.60;99.90
24664;DHT22;12791;50.992;13.788;2024-02-14T00:42:26;3.70;99.90
24664;DHT22;12791;50.992;13.788;2024-02-14T00:44:53;4.10;99.90
24664;DHT22;12791;50.992;13.788;2024-02-14T00:47:19;3.10;99.90
24664;DHT22;12791;50.992;13.788;2024-02-14T00:49:47;4.00;99.90
24664;DHT22;12791;50.992;13.788;2024-02-14T00:52:14;4.00;99.90
24664;DHT22;12791;50.992;13.788;2024-02-14T00:54:42;3.60;99.90
24664;DHT22;12791;50.992;13.788;2024-02-14T00:57:08;3.70;99.90
24664;DHT22;12791;50.992;13.788;2024-02-14T00:59:35;3.70;99.90
24664;DHT22;12791;50.992;13.788;2024-02-14T01:02:01;3.50;99.90
24664;DHT22;12791;50.992;13.788;2024-02-14T01:04:28;3.70;99.90
24664;DHT22;12791;50.992;13.788;2024-02-14T01:06:56;3.70;99.90
24664;DHT22;12791;50.992;13.788;2024-02-14T01:09:23;3.70;99.90
24664;DHT22;12791;50.992;13.788;2024-02-14T01:11:50;3.70;99.90
24664;DHT22;12791;50.992;13.788;2024-02-14T01:14:16;4.00;99.90
24664;DHT22;12791;50.992;13.788;2024-02-14T01:16:43;3.80;99.90
24664;DHT22;12791;50.992;13.788;2024-02-14T01:19:10;3.70;99.90
24664;DHT22;12791;50.992;13.788;2024-02-14T01:21:36;3.70;99.90
24664;DHT22;12791;50.992;13.788;2024-02-14T01:24:05;3.70;99.90
24664;DHT22;12791;50.992;13.788;2024-02-14T01:26:33;3.70;99.90
24664;DHT22;12791;50.992;13.788;2024-02-14T01:29:00;3.60;99.90
24664;DHT22;12791;50.992;13.788;2024-02-14T01:31:26;3.10;99.90
24664;DHT22;12791;50.992;13.788;2024-02-14T01:33:53;3.00;99.90
24664;DHT22;12791;50.992;13.788;2024-02-14T01:36:20;3.00;99.90
24664;DHT22;12791;50.992;13.788;2024-02-14T01:38:47;2.90;99.90
24664;DHT22;12791;50.992;13.788;2024-02-14T01:41:15;3.60;99.90
24664;DHT22;12791;50.992;13.788;2024-02-14T01:43:42;3.80;99.90
24664;DHT22;12791;50.992;13.788;2024-02-14T01:46:10;3.00;99.90
24664;DHT22;12791;50.992;13.788;2024-02-14T01:48:37;3.90;99.90
24664;DHT22;12791;50.992;13.788;2024-02-14T01:51:06;3.60;99.90
24664;DHT22;12791;50.992;13.788;2024-02-14T01:53:35;3.60;99.90
24664;DHT22;12791;50.992;13.788;2024-02-14T01:56:03;3.60;99.90
24664;DHT22;12791;50.992;13.788;2024-02-14T01:58:32;3.60;99.90
24664;DHT22;12791;50.992;13.788;2024-02-14T02:01:00;3.70;99.90
24664;DHT22;12791;50.992;13.788;2024-02-14T02:03:28;3.60;99.90
24664;DHT22;12791;50.992;13.788;2024-02-14T02:05:55;3.50;99.90
24664;DHT22;12791;50.992;13.788;2024-02-14T02:08:23;4.10;99.90
24664;DHT22;12791;50.992;13.788;2024-02-14T02:10:50;3.30;99.90
24664;DHT22;12791;50.992;13.788;2024-02-14T02:13:16;3.50;99.90
24664;DHT22;12791;50.992;13.788;2024-02-14T02:15:44;3.60;99.90
24664;DHT22;12791;50.992;13.788;2024-02-14T02:18:11;3.60;99.90
24664;DHT22;12791;50.992;13.788;2024-02-14T02:20:38;3.40;99.90
24664;DHT22;12791;50.992;13.788;2024-02-14T02:23:10;3.70;99.90
24664;DHT22;12791;50.992;13.788;2024-02-14T02:25:40;3.50;99.90
24664;DHT22;12791;50.992;13.788;2024-02-14T02:28:06;3.20;99.90
24664;DHT22;12791;50.992;13.788;2024-02-14T02:30:34;3.40;99.90
24664;DHT22;12791;50.992;13.788;2024-02-14T02:33:00;3.10;99.90
24664;DHT22;12791;50.992;13.788;2024-02-14T02:35:27;3.00;99.90
24664;DHT22;12791;50.992;13.788;2024-02-14T02:37:55;3.30;99.90
24664;DHT22;12791;50.992;13.788;2024-02-14T02:40:23;3.60;99.90
24664;DHT22;12791;50.992;13.788;2024-02-14T02:42:49;3.20;99.90
24664;DHT22;12791;50.992;13.788;2024-02-14T02:45:16;3.20;99.90
24664;DHT22;12791;50.992;13.788;2024-02-14T02:47:43;3.30;99.90
24664;DHT22;12791;50.992;13.788;2024-02-14T02:50:10;3.20;99.90
24664;DHT22;12791;50.992;13.788;2024-02-14T02:52:37;3.40;99.90
24664;DHT22;12791;50.992;13.788;2024-02-14T02:55:04;3.40;99.90
24664;DHT22;12791;50.992;13.788;2024-02-14T02:57:32;3.40;99.90
24664;DHT22;12791;50.992;13.788;2024-02-14T03:00:02;3.50;99.90
24664;DHT22;12791;50.992;13.788;2024-02-14T03:02:30;3.40;99.90
24664;DHT22;12791;50.992;13.788;2024-02-14T03:04:57;3.10;99.90
24664;DHT22;12791;50.992;13.788;2024-02-14T03:07:24;3.50;99.90
24664;DHT22;12791;50.992;13.788;2024-02-14T03:09:50;3.90;99.90
24664;DHT22;12791;50.992;13.788;2024-02-14T03:12:17;3.50;99.90
24664;DHT22;12791;50.992;13.788;2024-02-14T03:14:45;3.60;99.90
24664;DHT22;12791;50.992;13.788;2024-02-14T03:17:12;3.60;99.90
24664;DHT22;12791;50.992;13.788;2024-02-14T03:19:40;3.60;99.90
24664;DHT22;12791;50.992;13.788;2024-02-14T03:22:06;3.80;99.90
24664;DHT22;12791;50.992;13.788;2024-02-14T03:24:34;4.10;99.90
24664;DHT22;12791;50.992;13.788;2024-02-14T03:27:02;3.70;99.90
24664;DHT22;12791;50.992;13.788;2024-02-14T03:29:30;3.80;99.90
24664;DHT22;12791;50.992;13.788;2024-02-14T03:31:58;4.00;99.90
24664;DHT22;12791;50.992;13.788;2024-02-14T03:34:29;3.80;99.90
24664;DHT22;12791;50.992;13.788;2024-02-14T03:36:59;3.90;99.90
24664;DHT22;12791;50.992;13.788;2024-02-14T03:39:25;3.80;99.90
24664;DHT22;12791;50.992;13.788;2024-02-14T03:41:52;3.80;99.90
24664;DHT22;12791;50.992;13.788;2024-02-14T03:44:19;4.00;99.90
24664;DHT22;12791;50.992;13.788;2024-02-14T03:46:46;4.10;99.90
24664;DHT22;12791;50.992;13.788;2024-02-14T03:49:15;3.90;99.90
24664;DHT22;12791;50.992;13.788;2024-02-14T03:51:42;3.90;99.90
24664;DHT22;12791;50.992;13.788;2024-02-14T03:54:08;3.80;99.90
24664;DHT22;12791;50.992;13.788;2024-02-14T03:56:36;3.80;99.90
24664;DHT22;12791;50.992;13.788;2024-02-14T03:59:03;3.70;99.90
24664;DHT22;12791;50.992;13.788;2024-02-14T04:01:33;3.80;99.90
24664;DHT22;12791;50.992;13.788;2024-02-14T04:03:59;3.40;99.90
24664;DHT22;12791;50.992;13.788;2024-02-14T04:06:27;4.00;99.90
24664;DHT22;12791;50.992;13.788;2024-02-14T04:08:57;3.60;99.90
24664;DHT22;12791;50.992;13.788;2024-02-14T04:11:24;3.40;99.90
24664;DHT22;12791;50.992;13.788;2024-02-14T04:13:50;4.00;99.90
24664;DHT22;12791;50.992;13.788;2024-02-14T04:16:19;3.80;99.90
24664;DHT22;12791;50.992;13.788;2024-02-14T04:18:46;3.70;99.90
24664;DHT22;12791;50.992;13.788;2024-02-14T04:21:12;3.70;99.90
24664;DHT22;12791;50.992;13.788;2024-02-14T04:23:41;4.00;99.90
24664;DHT22;12791;50.992;13.788;2024-02-14T04:26:07;3.80;99.90
24664;DHT22;12791;50.992;13.788;2024-02-14T04:28:34;3.70;99.90
24664;DHT22;12791;50.992;13.788;2024-02-14T04:31:01;3.50;99.90
24664;DHT22;12791;50.992;13.788;2024-02-14T04:33:27;3.70;99.90
24664;DHT22;12791;50.992;13.788;2024-02-14T04:35:55;3.50;99.90
24664;DHT22;12791;50.992;13.788;2024-02-14T04:38:21;3.80;99.90
24664;DHT22;12791;50.992;13.788;2024-02-14T04:40:49;3.30;99.90
24664;DHT22;12791;50.992;13.788;2024-02-14T04:43:17;4.10;99.90
24664;DHT22;12791;50.992;13.788;2024-02-14T04:45:44;3.90;99.90
24664;DHT22;12791;50.992;13.788;2024-02-14T04:48:12;3.80;99.90
24664;DHT22;12791;50.992;13.788;2024-02-14T04:50:38;3.70;99.90
24664;DHT22;12791;50.992;13.788;2024-02-14T04:53:05;3.80;99.90
24664;DHT22;12791;50.992;13.788;2024-02-14T04:55:32;3.70;99.90
24664;DHT22;12791;50.992;13.788;2024-02-14T04:58:01;3.20;99.90
24664;DHT22;12791;50.992;13.788;2024-02-14T05:00:27;3.80;99.90
24664;DHT22;12791;50.992;13.788;2024-02-14T05:02:54;3.70;99.90
24664;DHT22;12791;50.992;13.788;2024-02-14T05:05:21;3.70;99.90
24664;DHT22;12791;50.992;13.788;2024-02-14T05:07:47;3.70;99.90
24664;DHT22;12791;50.992;13.788;2024-02-14T05:10:14;4.00;99.90
24664;DHT22;12791;50.992;13.788;2024-02-14T05:12:41;3.90;99.90
24664;DHT22;12791;50.992;13.788;2024-02-14T05:15:10;3.90;99.90
24664;DHT22;12791;50.992;13.788;2024-02-14T05:17:37;3.80;99.90
24664;DHT22;12791;50.992;13.788;2024-02-14T05:20:05;3.80;99.90
24664;DHT22;12791;50.992;13.788;2024-02-14T05:22:35;4.00;99.90
24664;DHT22;12791;50.992;13.788;2024-02-14T05:25:01;4.00;99.90
24664;DHT22;12791;50.992;13.788;2024-02-14T05:27:30;3.40;99.90
24664;DHT22;12791;50.992;13.788;2024-02-14T05:29:56;3.50;99.90
24664;DHT22;12791;50.992;13.788;2024-02-14T05:32:25;3.90;99.90
24664;DHT22;12791;50.992;13.788;2024-02-14T05:34:51;4.30;99.90
24664;DHT22;12791;50.992;13.788;2024-02-14T05:37:18;3.60;99.90
24664;DHT22;12791;50.992;13.788;2024-02-14T05:39:44;3.90;99.90
24664;DHT22;12791;50.992;13.788;2024-02-14T05:42:11;4.30;99.90
24664;DHT22;12791;50.992;13.788;2024-02-14T05:44:38;4.00;99.90
24664;DHT22;12791;50.992;13.788;2024-02-14T05:47:05;4.00;99.90
24664;DHT22;12791;50.992;13.788;2024-02-14T05:49:33;4.00;99.90
24664;DHT22;12791;50.992;13.788;2024-02-14T05:52:00;4.00;99.90
24664;DHT22;12791;50.992;13.788;2024-02-14T05:54:26;4.10;99.90
24664;DHT22;12791;50.992;13.788;2024-02-14T05:56:53;3.50;99.90
24664;DHT22;12791;50.992;13.788;2024-02-14T05:59:20;3.90;99.90
24664;DHT22;12791;50.992;13.788;2024-02-14T06:01:46;3.50;99.90
24664;DHT22;12791;50.992;13.788;2024-02-14T06:04:13;3.50;99.90
24664;DHT22;12791;50.992;13.788;2024-02-14T06:06:41;3.90;99.90
24664;DHT22;12791;50.992;13.788;2024-02-14T06:09:07;3.60;99.90
24664;DHT22;12791;50.992;13.788;2024-02-14T06:11:37;4.20;99.90
24664;DHT22;12791;50.992;13.788;2024-02-14T06:14:04;4.00;99.90
24664;DHT22;12791;50.992;13.788;2024-02-14T06:16:31;4.20;99.90
24664;DHT22;12791;50.992;13.788;2024-02-14T06:18:58;4.40;99.90
24664;DHT22;12791;50.992;13.788;2024-02-14T06:21:25;4.00;99.90
24664;DHT22;12791;50.992;13.788;2024-02-14T06:23:53;4.40;99.90
24664;DHT22;12791;50.992;13.788;2024-02-14T06:26:20;4.10;99.90
24664;DHT22;12791;50.992;13.788;2024-02-14T06:28:46;3.70;99.90
24664;DHT22;12791;50.992;13.788;2024-02-14T06:31:17;4.10;99.90
24664;DHT22;12791;50.992;13.788;2024-02-14T06:33:44;3.80;99.90
24664;DHT22;12791;50.992;13.788;2024-02-14T06:36:10;4.30;99.90
24664;DHT22;12791;50.992;13.788;2024-02-14T06:38:37;4.20;99.90
24664;DHT22;12791;50.992;13.788;2024-02-14T06:41:05;4.60;99.90
24664;DHT22;12791;50.992;13.788;2024-02-14T06:43:32;4.30;99.90
24664;DHT22;12791;50.992;13.788;2024-02-14T06:45:58;4.00;99.90
24664;DHT22;12791;50.992;13.788;2024-02-14T06:48:25;4.40;99.90
24664;DHT22;12791;50.992;13.788;2024-02-14T06:50:51;4.40;99.90
24664;DHT22;12791;50.992;13.788;2024-02-14T06:53:18;3.80;99.90
24664;DHT22;12791;50.992;13.788;2024-02-14T06:55:45;4.40;99.90
24664;DHT22;12791;50.992;13.788;2024-02-14T06:58:13;4.40;99.90
24664;DHT22;12791;50.992;13.788;2024-02-14T07:00:39;4.60;99.90
24664;DHT22;12791;50.992;13.788;2024-02-14T07:03:06;4.70;99.90
24664;DHT22;12791;50.992;13.788;2024-02-14T07:05:32;4.20;99.90
24664;DHT22;12791;50.992;13.788;2024-02-14T07:07:59;4.50;99.90
24664;DHT22;12791;50.992;13.788;2024-02-14T07:10:25;4.00;99.90
24664;DHT22;12791;50.992;13.788;2024-02-14T07:12:52;4.60;99.90
24664;DHT22;12791;50.992;13.788;2024-02-14T07:15:20;4.30;99.90
24664;DHT22;12791;50.992;13.788;2024-02-14T07:17:48;4.60;99.90
24664;DHT22;12791;50.992;13.788;2024-02-14T07:20:14;4.60;99.90
24664;DHT22;12791;50.992;13.788;2024-02-14T07:22:42;4.20;99.90
24664;DHT22;12791;50.992;13.788;2024-02-14T07:25:11;4.90;99.90
24664;DHT22;12791;50.992;13.788;2024-02-14T07:27:37;4.70;99.90
24664;DHT22;12791;50.992;13.788;2024-02-14T07:30:04;4.70;99.90
24664;DHT22;12791;50.992;13.788;2024-02-14T07:32:32;4.90;99.90
24664;DHT22;12791;50.992;13.788;2024-02-14T07:34:58;4.80;99.90
24664;DHT22;12791;50.992;13.788;2024-02-14T07:37:25;4.50;99.90
24664;DHT22;12791;50.992;13.788;2024-02-14T07:39:52;5.10;99.90
24664;DHT22;12791;50.992;13.788;2024-02-14T07:42:18;4.90;99.90
24664;DHT22;12791;50.992;13.788;2024-02-14T07:44:45;5.00;99.90
24664;DHT22;12791;50.992;13.788;2024-02-14T07:47:11;4.90;99.90
24664;DHT22;12791;50.992;13.788;2024-02-14T07:49:40;5.00;99.90
24664;DHT22;12791;50.992;13.788;2024-02-14T07:52:06;5.10;99.90
24664;DHT22;12791;50.992;13.788;2024-02-14T07:54:33;5.10;99.90
24664;DHT22;12791;50.992;13.788;2024-02-14T07:57:00;5.10;99.90
24664;DHT22;12791;50.992;13.788;2024-02-14T07:59:26;5.10;99.90
24664;DHT22;12791;50.992;13.788;2024-02-14T08:01:53;4.90;99.90
24664;DHT22;12791;50.992;13.788;2024-02-14T08:04:21;5.30;99.90
24664;DHT22;12791;50.992;13.788;2024-02-14T08:06:49;5.30;99.90
24664;DHT22;12791;50.992;13.788;2024-02-14T08:09:16;5.30;99.90
24664;DHT22;12791;50.992;13.788;2024-02-14T08:11:43;5.30;99.90
24664;DHT22;12791;50.992;13.788;2024-02-14T08:14:10;5.40;99.90
24664;DHT22;12791;50.992;13.788;2024-02-14T08:16:37;5.40;99.90
24664;DHT22;12791;50.992;13.788;2024-02-14T08:19:04;5.70;99.90
24664;DHT22;12791;50.992;13.788;2024-02-14T08:21:31;5.50;99.90
24664;DHT22;12791;50.992;13.788;2024-02-14T08:23:59;5.70;99.90
24664;DHT22;12791;50.992;13.788;2024-02-14T08:26:25;5.50;99.90
24664;DHT22;12791;50.992;13.788;2024-02-14T08:28:52;5.70;99.90
24664;DHT22;12791;50.992;13.788;2024-02-14T08:31:20;5.50;99.90
24664;DHT22;12791;50.992;13.788;2024-02-14T08:33:46;5.60;99.90
24664;DHT22;12791;50.992;13.788;2024-02-14T08:36:13;5.70;99.90
24664;DHT22;12791;50.992;13.788;2024-02-14T08:38:40;5.80;99.90
24664;DHT22;12791;50.992;13.788;2024-02-14T08:41:08;5.80;99.90
24664;DHT22;12791;50.992;13.788;2024-02-14T08:43:34;5.50;99.90
24664;DHT22;12791;50.992;13.788;2024-02-14T08:46:01;6.00;99.90
24664;DHT22;12791;50.992;13.788;2024-02-14T08:48:28;6.10;99.90
24664;DHT22;12791;50.992;13.788;2024-02-14T08:50:58;5.90;99.90
24664;DHT22;12791;50.992;13.788;2024-02-14T08:53:25;6.20;99.90
24664;DHT22;12791;50.992;13.788;2024-02-14T08:55:52;5.70;99.90
24664;DHT22;12791;50.992;13.788;2024-02-14T08:58:20;6.20;99.90
24664;DHT22;12791;50.992;13.788;2024-02-14T09:00:49;6.30;99.90
24664;DHT22;12791;50.992;13.788;2024-02-14T09:03:18;6.30;99.90
24664;DHT22;12791;50.992;13.788;2024-02-14T09:05:44;6.30;99.90
24664;DHT22;12791;50.992;13.788;2024-02-14T09:08:12;6.40;99.90
24664;DHT22;12791;50.992;13.788;2024-02-14T09:10:38;6.50;99.90
24664;DHT22;12791;50.992;13.788;2024-02-14T09:13:05;6.50;99.90
24664;DHT22;12791;50.992;13.788;2024-02-14T09:15:34;6.60;99.90
24664;DHT22;12791;50.992;13.788;2024-02-14T09:18:01;6.60;99.90
24664;DHT22;12791;50.992;13.788;2024-02-14T09:20:28;6.70;99.90
24664;DHT22;12791;50.992;13.788;2024-02-14T09:22:55;6.80;99.90
24664;DHT22;12791;50.992;13.788;2024-02-14T09:25:23;6.80;99.90
24664;DHT22;12791;50.992;13.788;2024-02-14T09:27:50;6.90;99.90
24664;DHT22;12791;50.992;13.788;2024-02-14T09:30:18;7.00;99.90
24664;DHT22;12791;50.992;13.788;2024-02-14T09:32:46;7.00;99.90
24664;DHT22;12791;50.992;13.788;2024-02-14T09:35:16;7.20;99.90
24664;DHT22;12791;50.992;13.788;2024-02-14T09:37:42;7.10;99.90
24664;DHT22;12791;50.992;13.788;2024-02-14T09:40:10;7.00;99.90
24664;DHT22;12791;50.992;13.788;2024-02-14T09:42:42;7.30;99.90
24664;DHT22;12791;50.992;13.788;2024-02-14T09:45:10;7.30;99.90
24664;DHT22;12791;50.992;13.788;2024-02-14T09:47:37;7.30;99.90
24664;DHT22;12791;50.992;13.788;2024-02-14T09:50:08;7.30;99.90
24664;DHT22;12791;50.992;13.788;2024-02-14T09:52:37;7.50;99.90
24664;DHT22;12791;50.992;13.788;2024-02-14T09:55:05;7.40;99.90
24664;DHT22;12791;50.992;13.788;2024-02-14T09:57:32;7.50;99.90
24664;DHT22;12791;50.992;13.788;2024-02-14T10:00:00;7.70;99.90
24664;DHT22;12791;50.992;13.788;2024-02-14T10:02:29;7.40;99.90
24664;DHT22;12791;50.992;13.788;2024-02-14T10:04:56;7.60;99.90
24664;DHT22;12791;50.992;13.788;2024-02-14T10:07:24;7.60;99.90
24664;DHT22;12791;50.992;13.788;2024-02-14T10:09:50;7.70;99.90
24664;DHT22;12791;50.992;13.788;2024-02-14T10:12:17;7.80;99.90
24664;DHT22;12791;50.992;13.788;2024-02-14T10:14:44;7.70;99.90
24664;DHT22;12791;50.992;13.788;2024-02-14T10:17:17;7.80;99.90
24664;DHT22;12791;50.992;13.788;2024-02-14T10:19:54;7.90;99.90
24664;DHT22;12791;50.992;13.788;2024-02-14T10:22:20;7.90;99.90
24664;DHT22;12791;50.992;13.788;2024-02-14T10:24:48;7.90;99.90
24664;DHT22;12791;50.992;13.788;2024-02-14T10:27:15;8.20;99.90
24664;DHT22;12791;50.992;13.788;2024-02-14T10:29:42;8.00;99.90
24664;DHT22;12791;50.992;13.788;2024-02-14T10:32:09;8.00;99.90
24664;DHT22;12791;50.992;13.788;2024-02-14T10:34:37;8.00;99.90
24664;DHT22;12791;50.992;13.788;2024-02-14T10:37:06;8.10;99.90
24664;DHT22;12791;50.992;13.788;2024-02-14T10:39:33;8.10;99.90
24664;DHT22;12791;50.992;13.788;2024-02-14T10:42:03;8.10;99.90
24664;DHT22;12791;50.992;13.788;2024-02-14T10:44:30;8.10;99.90
24664;DHT22;12791;50.992;13.788;2024-02-14T10:46:59;8.10;99.90
24664;DHT22;12791;50.992;13.788;2024-02-14T10:49:29;8.30;99.90
24664;DHT22;12791;50.992;13.788;2024-02-14T10:51:58;8.20;99.90
24664;DHT22;12791;50.992;13.788;2024-02-14T10:54:28;8.20;99.90
24664;DHT22;12791;50.992;13.788;2024-02-14T10:56:58;8.10;99.90
24664;DHT22;12791;50.992;13.788;2024-02-14T10:59:35;8.30;99.90
24664;DHT22;12791;50.992;13.788;2024-02-14T11:02:03;8.40;99.90
24664;DHT22;12791;50.992;13.788;2024-02-14T11:04:30;8.50;99.90
24664;DHT22;12791;50.992;13.788;2024-02-14T11:06:58;8.70;99.90
24664;DHT22;12791;50.992;13.788;2024-02-14T11:09:31;8.80;99.90
24664;DHT22;12791;50.992;13.788;2024-02-14T11:12:00;8.80;99.90
24664;DHT22;12791;50.992;13.788;2024-02-14T11:14:29;8.90;99.90
24664;DHT22;12791;50.992;13.788;2024-02-14T11:16:59;9.10;99.90
24664;DHT22;12791;50.992;13.788;2024-02-14T11:19:31;9.20;99.90
24664;DHT22;12791;50.992;13.788;2024-02-14T11:21:59;9.30;99.90
24664;DHT22;12791;50.992;13.788;2024-02-14T11:24:28;9.40;99.90
24664;DHT22;12791;50.992;13.788;2024-02-14T11:26:56;9.40;99.90
24664;DHT22;12791;50.992;13.788;2024-02-14T11:29:29;9.40;99.90
24664;DHT22;12791;50.992;13.788;2024-02-14T11:32:00;9.40;99.90
24664;DHT22;12791;50.992;13.788;2024-02-14T11:34:28;9.40;99.90
24664;DHT22;12791;50.992;13.788;2024-02-14T11:36:57;9.40;99.90
24664;DHT22;12791;50.992;13.788;2024-02-14T11:39:25;9.40;99.90
24664;DHT22;12791;50.992;13.788;2024-02-14T11:41:52;9.30;99.90
24664;DHT22;12791;50.992;13.788;2024-02-14T11:44:19;9.30;99.90
24664;DHT22;12791;50.992;13.788;2024-02-14T11:46:47;9.20;99.90
24664;DHT22;12791;50.992;13.788;2024-02-14T11:49:15;9.10;99.90
24664;DHT22;12791;50.992;13.788;2024-02-14T11:51:42;9.20;99.90
24664;DHT22;12791;50.992;13.788;2024-02-14T11:54:09;9.20;99.90
24664;DHT22;12791;50.992;13.788;2024-02-14T11:56:37;9.20;99.90
24664;DHT22;12791;50.992;13.788;2024-02-14T11:59:04;9.20;99.90
24664;DHT22;12791;50.992;13.788;2024-02-14T12:01:33;9.30;99.90
24664;DHT22;12791;50.992;13.788;2024-02-14T12:04:01;9.30;99.90
24664;DHT22;12791;50.992;13.788;2024-02-14T12:06:31;9.40;99.90
24664;DHT22;12791;50.992;13.788;2024-02-14T12:09:00;9.40;99.90
24664;DHT22;12791;50.992;13.788;2024-02-14T12:11:31;9.50;99.90
24664;DHT22;12791;50.992;13.788;2024-02-14T12:14:00;9.60;99.90
24664;DHT22;12791;50.992;13.788;2024-02-14T12:16:27;9.60;99.90
24664;DHT22;12791;50.992;13.788;2024-02-14T12:19:03;9.60;99.90
24664;DHT22;12791;50.992;13.788;2024-02-14T12:21:35;9.70;99.90
24664;DHT22;12791;50.992;13.788;2024-02-14T12:24:03;9.80;99.90
24664;DHT22;12791;50.992;13.788;2024-02-14T12:26:30;9.90;99.90
24664;DHT22;12791;50.992;13.788;2024-02-14T12:28:57;10.00;99.90
24664;DHT22;12791;50.992;13.788;2024-02-14T12:31:24;10.00;99.90
24664;DHT22;12791;50.992;13.788;2024-02-14T12:33:51;10.00;99.90
24664;DHT22;12791;50.992;13.788;2024-02-14T12:36:20;10.00;99.90
24664;DHT22;12791;50.992;13.788;2024-02-14T12:38:49;9.90;99.90
24664;DHT22;12791;50.992;13.788;2024-02-14T12:41:17;9.80;99.90
24664;DHT22;12791;50.992;13.788;2024-02-14T12:43:44;9.40;99.90
24664;DHT22;12791;50.992;13.788;2024-02-14T12:46:10;9.70;99.90
24664;DHT22;12791;50.992;13.788;2024-02-14T12:48:37;9.70;99.90
24664;DHT22;12791;50.992;13.788;2024-02-14T12:51:04;9.70;99.90
24664;DHT22;12791;50.992;13.788;2024-02-14T12:53:30;9.60;99.90
24664;DHT22;12791;50.992;13.788;2024-02-14T12:55:58;9.60;99.90
24664;DHT22;12791;50.992;13.788;2024-02-14T12:58:25;9.20;99.90
24664;DHT22;12791;50.992;13.788;2024-02-14T13:00:52;9.50;99.90
24664;DHT22;12791;50.992;13.788;2024-02-14T13:03:19;9.50;99.90
24664;DHT22;12791;50.992;13.788;2024-02-14T13:05:45;9.50;99.90
24664;DHT22;12791;50.992;13.788;2024-02-14T13:08:12;9.50;99.90
24664;DHT22;12791;50.992;13.788;2024-02-14T13:10:42;9.50;99.90
24664;DHT22;12791;50.992;13.788;2024-02-14T13:13:10;9.50;99.90
24664;DHT22;12791;50.992;13.788;2024-02-14T13:15:37;9.50;99.90
24664;DHT22;12791;50.992;13.788;2024-02-14T13:18:03;9.50;99.90
24664;DHT22;12791;50.992;13.788;2024-02-14T13:20:30;9.40;99.90
24664;DHT22;12791;50.992;13.788;2024-02-14T13:22:56;9.40;99.90
24664;DHT22;12791;50.992;13.788;2024-02-14T13:25:23;9.40;99.90
24664;DHT22;12791;50.992;13.788;2024-02-14T13:27:50;9.40;99.90
24664;DHT22;12791;50.992;13.788;2024-02-14T13:30:18;9.50;99.90
24664;DHT22;12791;50.992;13.788;2024-02-14T13:32:45;9.50;99.90
24664;DHT22;12791;50.992;13.788;2024-02-14T13:35:12;9.60;99.90
24664;DHT22;12791;50.992;13.788;2024-02-14T13:37:39;9.80;99.90
24664;DHT22;12791;50.992;13.788;2024-02-14T13:40:06;9.60;99.90
24664;DHT22;12791;50.992;13.788;2024-02-14T13:42:35;9.60;99.90
24664;DHT22;12791;50.992;13.788;2024-02-14T13:45:03;9.50;99.90
24664;DHT22;12791;50.992;13.788;2024-02-14T13:47:32;9.70;99.90
24664;DHT22;12791;50.992;13.788;2024-02-14T13:50:00;9.70;99.90
24664;DHT22;12791;50.992;13.788;2024-02-14T13:52:29;9.70;99.90
24664;DHT22;12791;50.992;13.788;2024-02-14T13:54:56;9.40;99.90
24664;DHT22;12791;50.992;13.788;2024-02-14T13:57:22;9.90;99.90
24664;DHT22;12791;50.992;13.788;2024-02-14T13:59:49;10.00;99.90
24664;DHT22;12791;50.992;13.788;2024-02-14T14:02:16;10.10;99.90
24664;DHT22;12791;50.992;13.788;2024-02-14T14:04:44;10.20;99.90
24664;DHT22;12791;50.992;13.788;2024-02-14T14:07:11;10.20;99.90
24664;DHT22;12791;50.992;13.788;2024-02-14T14:09:37;10.30;99.90
24664;DHT22;12791;50.992;13.788;2024-02-14T14:12:05;10.30;99.90
24664;DHT22;12791;50.992;13.788;2024-02-14T14:14:31;10.40;99.90
24664;DHT22;12791;50.992;13.788;2024-02-14T14:16:58;10.40;99.90
24664;DHT22;12791;50.992;13.788;2024-02-14T14:19:25;10.40;99.90
24664;DHT22;12791;50.992;13.788;2024-02-14T14:21:53;10.50;99.90
24664;DHT22;12791;50.992;13.788;2024-02-14T14:24:21;10.50;99.90
24664;DHT22;12791;50.992;13.788;2024-02-14T14:26:48;10.50;99.90
24664;DHT22;12791;50.992;13.788;2024-02-14T14:29:16;10.50;99.90
24664;DHT22;12791;50.992;13.788;2024-02-14T14:31:43;10.50;99.90
24664;DHT22;12791;50.992;13.788;2024-02-14T14:34:09;10.50;99.90
24664;DHT22;12791;50.992;13.788;2024-02-14T14:36:36;10.50;99.90
24664;DHT22;12791;50.992;13.788;2024-02-14T14:39:04;10.60;99.90
24664;DHT22;12791;50.992;13.788;2024-02-14T14:41:31;10.60;99.90
24664;DHT22;12791;50.992;13.788;2024-02-14T14:43:58;10.60;99.90
24664;DHT22;12791;50.992;13.788;2024-02-14T14:46:25;10.60;99.90
24664;DHT22;12791;50.992;13.788;2024-02-14T14:48:51;10.60;99.90
24664;DHT22;12791;50.992;13.788;2024-02-14T14:51:18;10.60;99.90
24664;DHT22;12791;50.992;13.788;2024-02-14T14:53:45;10.60;99.90
24664;DHT22;12791;50.992;13.788;2024-02-14T14:56:13;10.60;99.90
24664;DHT22;12791;50.992;13.788;2024-02-14T14:58:39;10.60;99.90
24664;DHT22;12791;50.992;13.788;2024-02-14T15:01:08;10.60;99.90
24664;DHT22;12791;50.992;13.788;2024-02-14T15:03:34;10.60;99.90
24664;DHT22;12791;50.992;13.788;2024-02-14T15:06:01;10.60;99.90
24664;DHT22;12791;50.992;13.788;2024-02-14T15:08:28;10.60;99.90
24664;DHT22;12791;50.992;13.788;2024-02-14T15:10:55;10.60;99.90
24664;DHT22;12791;50.992;13.788;2024-02-14T15:13:24;10.60;99.90
24664;DHT22;12791;50.992;13.788;2024-02-14T15:15:51;10.60;99.90
24664;DHT22;12791;50.992;13.788;2024-02-14T15:18:18;10.60;99.90
24664;DHT22;12791;50.992;13.788;2024-02-14T15:20:45;10.60;99.90
24664;DHT22;12791;50.992;13.788;2024-02-14T15:23:12;10.60;99.90
24664;DHT22;12791;50.992;13.788;2024-02-14T15:25:38;10.60;99.90
24664;DHT22;12791;50.992;13.788;2024-02-14T15:28:07;10.60;99.90
24664;DHT22;12791;50.992;13.788;2024-02-14T15:30:39;10.50;99.90